Lake Wohlford (1030) Station Data

Red Flag Warning: No
Fire Weather Zone: 250
SDGE Region: North East
Lat/Lon: 33.178/-116.995

Observations

Time Wind Speed/Gust Temp(F) RH Fuel Moist Fuel Temp(F) Dewpt(F) Tmax(F) Tmin(F) Accum Precip 10-min Precip SL Press(mb)
4/30 12:00am 78 6 G 9 60° 25% - - 24° 79.7° 59.4° - - -
4/29 11:50pm 82 6 G 7 60° 26% - - 25° 79.7° 59.4° - - -
4/29 11:40pm 78 7 G 8 61° 25% - - 25° 79.7° 59.5° - - -
4/29 11:30pm 75 6 G 8 61° 25% - - 25° 79.7° 59.5° - - -
4/29 11:20pm 74 7 G 9 61° 25% - - 25° 79.7° 59.5° - - -
4/29 11:10pm 71 7 G 9 61° 25% - - 25° 79.7° 59.5° - - -
4/29 11:00pm 81 6 G 9 61° 26% - - 25° 79.7° 59.5° - - -
4/29 10:50pm 74 7 G 8 60° 26% - - 26° 79.7° 59.5° - - -
4/29 10:40pm 73 7 G 9 61° 26% - - 26° 79.7° 59.5° - - -
4/29 10:30pm 71 8 G 9 60° 27% - - 26° 79.7° 59.5° - - -
4/29 10:20pm 73 8 G 10 60° 26% - - 26° 79.7° 59.5° - - -
4/29 10:10pm 73 8 G 11 61° 26% - - 25° 79.7° 59.7° - - -
4/29 10:00pm 73 6 G 9 60° 27% - - 26° 79.7° 59.7° - - -
4/29 9:50pm 84 5 G 7 60° 27% - - 26° 79.7° 59.7° - - -
4/29 9:40pm 79 5 G 9 61° 26% - - 26° 79.7° 59.7° - - -
4/29 9:30pm 79 6 G 8 61° 26% - - 26° 79.7° 59.7° - - -
4/29 9:20pm 77 6 G 8 61° 25% - - 25° 79.7° 59.7° - - -
4/29 9:10pm 79 5 G 7 62° 24% - - 24° 79.7° 59.7° - - -
4/29 9:00pm 94 4 G 5 63° 23% - - 25° 79.7° 59.7° - - -
4/29 8:50pm 82 4 G 5 63° 23% - - 25° 79.7° 59.7° - - -
4/29 8:40pm 78 5 G 6 63° 23% - - 25° 79.7° 59.7° - - -
4/29 8:30pm 95 4 G 6 63° 23% - - 24° 79.7° 59.7° - - -
4/29 8:20pm 103 2 G 4 65° 21% - - 24° 79.7° 59.7° - - -
4/29 8:10pm 213 1 G 2 65° 20% - - 23° 79.7° 59.7° - - -
4/29 8:00pm 83 1 G 2 65° 22% - - 25° 79.7° 59.7° - - -
4/29 7:50pm 113 1 G 2 65° 21% - - 25° 79.7° 59.7° - - -
4/29 7:40pm 280 1 G 2 66° 20% - - 24° 79.7° 59.7° - - -
4/29 7:30pm 259 3 G 7 67° 20% - - 25° 79.7° 59.7° - - -
4/29 7:20pm 256 4 G 7 68° 19% - - 24° 79.7° 59.7° - - -
4/29 7:10pm 258 5 G 9 69° 19% - - 24° 79.7° 59.7° - - -
4/29 7:00pm 259 5 G 10 70° 18% - - 24° 79.7° 59.7° - - -
4/29 6:50pm 263 5 G 9 70° 17% - - 24° 79.7° 59.7° - - -
4/29 6:40pm 282 6 G 11 70° 17% - - 23° 79.7° 59.7° - - -
4/29 6:30pm 274 6 G 10 71° 15% - - 21° 79.7° 59.7° - - -
4/29 6:20pm 273 7 G 11 71° 16% - - 22° 79.7° 59.7° - - -
4/29 6:10pm 260 8 G 12 71° 14% - - 20° 79.7° 59.7° - - -
4/29 6:00pm 271 9 G 13 72° 14% - - 20° 79.7° 59.7° - - -
4/29 5:50pm 257 8 G 13 73° 13% - - 20° 79.7° 59.7° - - -
4/29 5:40pm 255 10 G 14 73° 14% - - 20° 79.7° 59.7° - - -
4/29 5:30pm 256 10 G 14 73° 13% - - 19° 79.7° 59.7° - - -
4/29 5:20pm 251 10 G 15 73° 13% - - 20° 79.7° 59.7° - - -
4/29 5:10pm 256 11 G 15 73° 13% - - 20° 79.7° 59.7° - - -
4/29 5:00pm 242 11 G 17 73° 13% - - 20° 79.7° 59.7° - - -
4/29 4:50pm 242 11 G 16 73° 13% - - 20° 79.7° 59.7° - - -
4/29 4:40pm 240 11 G 16 74° 13% - - 20° 79.7° 59.7° - - -
4/29 4:30pm 249 11 G 16 75° 13% - - 21° 79.7° 59.7° - - -
4/29 4:20pm 242 11 G 18 74° 13% - - 20° 79.7° 59.7° - - -
4/29 4:10pm 238 11 G 16 74° 12% - - 19° 79.7° 59.7° - - -
4/29 4:00pm 241 11 G 16 75° 12% - - 18° 79.7° 59.7° - - -
4/29 3:50pm 250 13 G 19 75° 12% - - 19° 79.7° 59.7° - - -
4/29 3:40pm 242 11 G 17 76° 12% - - 19° 79.7° 59.7° - - -
4/29 3:30pm 251 10 G 16 76° 12% - - 20° 79.7° 59.7° - - -
4/29 3:20pm 257 11 G 16 75° 12% - - 18° 79.7° 59.7° - - -
4/29 3:10pm 251 10 G 16 75° 12% - - 19° 79.7° 59.7° - - -
4/29 3:00pm 245 12 G 19 75° 13% - - 20° 79.7° 59.7° - - -
4/29 2:50pm 245 12 G 19 76° 13% - - 21° 79.7° 59.7° - - -
4/29 2:40pm 248 11 G 18 75° 14% - - 22° 79.7° 59.7° - - -
4/29 2:30pm 250 13 G 20 75° 13% - - 22° 79.7° 59.7° - - -
4/29 2:20pm 246 8 G 16 78° 10% - - 16° 79.7° 59.7° - - -
4/29 2:10pm 196 2 G 8 78° 8% - - 13° 79.3° 59.7° - - -
4/29 2:00pm 241 5 G 13 77° 8% - - 11° 78.2° 59.7° - - -
4/29 1:50pm 262 7 G 13 76° 9% - - 12° 78.2° 59.7° - - -
4/29 1:40pm 258 10 G 16 76° 9% - - 13° 78.2° 59.7° - - -
4/29 1:30pm 237 8 G 15 77° 9% - - 14° 78.2° 59.7° - - -
4/29 1:20pm 231 7 G 13 77° 9% - - 14° 77.9° 59.7° - - -
4/29 1:10pm 240 9 G 16 76° 9% - - 12° 77° 59.7° - - -
4/29 1:00pm 204 8 G 16 76° 9% - - 13° 77° 59.7° - - -
4/29 12:50pm 196 8 G 15 76° 9% - - 14° 76.9° 59.7° - - -
4/29 12:40pm 202 7 G 12 76° 9% - - 12° 75.9° 59.7° - - -
4/29 12:30pm 171 8 G 15 75° 9% - - 11° 75.9° 59.7° - - -
4/29 12:20pm 127 9 G 22 75° 9% - - 11° 75.9° 59.7° - - -
4/29 12:10pm 136 8 G 15 75° 9% - - 12° 75.8° 59.7° - - -
4/29 12:00pm 134 9 G 15 75° 9% - - 12° 75.3° 59.7° - - -
4/29 11:50am 121 8 G 17 74° 9% - - 12° 75.3° 59.7° - - -
4/29 11:40am 106 11 G 19 74° 9% - - 10° 75° 59.7° - - -
4/29 11:30am 107 10 G 18 74° 9% - - 11° 75° 59.7° - - -
4/29 11:20am 92 10 G 19 73° 9% - - 10° 74.1° 59.7° - - -
4/29 11:10am 116 11 G 18 73° 9% - - 10° 73.2° 59.7° - - -
4/29 11:00am 112 10 G 18 72° 9% - - 11° 73.2° 59.7° - - -
4/29 10:50am 111 13 G 23 72° 9% - - 11° 73.2° 59.7° - - -
4/29 10:40am 99 9 G 16 72° 9% - - 11° 73.2° 59.7° - - -
4/29 10:30am 57 8 G 13 72° 9% - - 11° 72.7° 59.7° - - -
4/29 10:20am 66 10 G 19 72° 9% - - 10° 72.4° 59.7° - - -
4/29 10:10am 88 9 G 18 71° 10% - - 12° 72.4° 59.7° - - -
4/29 10:00am 75 8 G 13 71° 10% - - 12° 72.4° 59.7° - - -
4/29 9:50am 70 8 G 19 71° 10% - - 13° 72.4° 59.7° - - -
4/29 9:40am 74 10 G 17 70° 10% - - 12° 71.8° 59.7° - - -
4/29 9:30am 69 7 G 18 71° 11% - - 13° 71.8° 59.7° - - -
4/29 9:20am 37 4 G 11 70° 12% - - 15° 70.6° 59.7° - - -
4/29 9:10am 149 4 G 12 68° 12% - - 14° 69.8° 59.7° - - -
4/29 9:00am 295 3 G 5 67° 13% - - 14° 67.6° 59.7° - - -
4/29 8:50am 278 3 G 6 66° 15% - - 17° 67.6° 59.7° - - -
4/29 8:40am 268 3 G 5 66° 17% - - 19° 67.6° 59.7° - - -
4/29 8:30am 253 2 G 5 65° 16% - - 17° 67.6° 59.7° - - -
4/29 8:20am 299 3 G 4 63° 17% - - 17° 67.6° 59.7° - - -
4/29 8:10am 292 2 G 3 62° 18% - - 18° 67.6° 59.7° - - -
4/29 8:00am 252 2 G 3 62° 20% - - 20° 67.6° 59.7° - - -
4/29 7:50am 216 1 G 3 62° 21% - - 21° 67.6° 59.7° - - -
4/29 7:40am 45 3 G 6 61° 18% - - 18° 67.6° 59.7° - - -
4/29 7:30am 41 3 G 6 61° 16% - - 15° 67.6° 59.7° - - -
4/29 7:20am 126 2 G 3 61° 16% - - 14° 67.6° 59.7° - - -
4/29 7:10am 183 2 G 4 61° 15% - - 13° 67.6° 59.7° - - -
4/29 7:00am 89 1 G 2 63° 12% - - 10° 67.6° 59.9° - - -
4/29 6:50am 91 2 G 5 63° 12% - - 10° 67.6° 59.9° - - -
4/29 6:40am 125 1 G 3 62° 12% - - 67.6° 59.9° - - -
4/29 6:30am 171 2 G 4 61° 12% - - 67.6° 59.9° - - -
4/29 6:20am 279 2 G 4 62° 12% - - 67.6° 59.9° - - -
4/29 6:10am 356 2 G 4 62° 11% - - 67.6° 59.9° - - -
4/29 6:00am 28 2 G 4 61° 12% - - 67.6° 59.9° - - -
4/29 5:50am 30 2 G 4 61° 12% - - 67.6° 60.9° - - -
4/29 5:40am 79 1 G 4 62° 12% - - 67.6° 60.9° - - -
4/29 5:30am 292 1 G 3 61° 12% - - 67.6° 60.9° - - -
4/29 5:20am 34 2 G 4 62° 12% - - 67.6° 61.1° - - -
4/29 5:10am 54 5 G 8 63° 11% - - 67.6° 62.1° - - -
4/29 5:00am 50 8 G 12 63° 11% - - 67.6° 62.1° - - -
4/29 4:50am 57 6 G 11 63° 12% - - 67.6° 62.1° - - -
4/29 4:40am 64 5 G 9 63° 12% - - 67.6° 62.1° - - -
4/29 4:30am 53 8 G 13 63° 11% - - 67.6° 62.9° - - -
4/29 4:20am 56 8 G 14 63° 11% - - 67.6° 62.9° - - -
4/29 4:10am 56 9 G 13 64° 11% - - 67.6° 63.3° - - -
4/29 4:00am 61 8 G 14 64° 11% - - 67.6° 63.3° - - -
4/29 3:50am 62 10 G 18 64° 11% - - 67.6° 63.7° - - -
4/29 3:40am 53 12 G 20 64° 11% - - 67.6° 63.7° - - -
4/29 3:30am 50 12 G 18 65° 11% - - 67.6° 63.7° - - -
4/29 3:20am 53 15 G 23 65° 11% - - 67.6° 63.7° - - -
4/29 3:10am 51 13 G 21 65° 11% - - 67.6° 63.7° - - -
4/29 3:00am 46 15 G 25 65° 11% - - 10° 67.6° 63.7° - - -
4/29 2:50am 46 14 G 23 65° 11% - - 10° 67.6° 63.7° - - -
4/29 2:40am 47 14 G 22 65° 11% - - 10° 67.6° 63.7° - - -
4/29 2:30am 48 15 G 22 66° 11% - - 10° 67.6° 63.7° - - -
4/29 2:20am 48 13 G 21 66° 12% - - 11° 67.6° 63.7° - - -
4/29 2:10am 48 13 G 23 66° 11% - - 11° 67.6° 63.7° - - -
4/29 2:00am 46 12 G 20 66° 11% - - 11° 67.6° 63.7° - - -
4/29 1:50am 47 10 G 15 66° 12% - - 11° 67.6° 63.7° - - -
4/29 1:40am 43 9 G 15 65° 12% - - 11° 67.6° 63.7° - - -
4/29 1:30am 19 4 G 9 64° 14% - - 14° 67.6° 63.7° - - -
4/29 1:20am 269 1 G 3 64° 15% - - 16° 67.6° 63.8° - - -
4/29 1:10am 14 7 G 12 66° 12% - - 13° 67.6° 64.8° - - -
4/29 1:00am 31 10 G 15 67° 12% - - 12° 67.6° 64.8° - - -
4/29 12:50am 33 10 G 15 67° 11% - - 11° 67.6° 64.8° - - -
4/29 12:40am 41 11 G 16 67° 11% - - 10° 67.6° 64.8° - - -
4/29 12:30am 37 11 G 17 67° 11% - - 10° 67.6° 64.8° - - -
4/29 12:20am 45 10 G 15 67° 12% - - 12° 67° 64.8° - - -
4/29 12:10am 46 9 G 13 66° 13% - - 14° 66.8° 64.8° - - -
4/29 12:00am 55 7 G 14 62° 28% - - 28° 73.1° 52.1° - - -
4/28 11:50pm 82 4 G 5 61° 41% - - 37° 73.1° 52.1° - - -
4/28 11:40pm 85 6 G 8 59° 44% - - 37° 73.1° 52.1° - - -
4/28 11:30pm 73 6 G 9 60° 42% - - 37° 73.1° 52.1° - - -
4/28 11:20pm 71 7 G 9 60° 43% - - 37° 73.1° 52.1° - - -
4/28 11:10pm 77 6 G 8 59° 44% - - 37° 73.1° 52.1° - - -
4/28 11:00pm 78 6 G 7 61° 41% - - 37° 73.1° 52.1° - - -
4/28 10:50pm 69 6 G 7 60° 42% - - 37° 73.1° 52.1° - - -
4/28 10:40pm 75 6 G 8 59° 46% - - 38° 73.1° 52.1° - - -
4/28 10:30pm 80 6 G 7 57° 49% - - 38° 73.1° 52.1° - - -
4/28 10:20pm 84 5 G 7 58° 47% - - 38° 73.1° 52.1° - - -
4/28 10:10pm 76 6 G 8 58° 46% - - 38° 73.1° 52.1° - - -
4/28 10:00pm 75 8 G 10 58° 46% - - 38° 73.1° 52.1° - - -
4/28 9:50pm 74 7 G 9 58° 46% - - 38° 73.1° 52.1° - - -
4/28 9:40pm 77 8 G 10 58° 48% - - 38° 73.1° 52.1° - - -
4/28 9:30pm 85 6 G 7 58° 49% - - 39° 73.1° 52.1° - - -
4/28 9:20pm 76 6 G 8 58° 49% - - 39° 73.1° 52.1° - - -
4/28 9:10pm 76 5 G 8 58° 49% - - 39° 73.1° 52.1° - - -
4/28 9:00pm 78 5 G 6 58° 49% - - 39° 73.1° 52.1° - - -
4/28 8:50pm 86 4 G 6 58° 49% - - 39° 73.1° 52.1° - - -
4/28 8:40pm 75 4 G 6 59° 47% - - 39° 73.1° 52.1° - - -
4/28 8:30pm 82 3 G 4 59° 48% - - 39° 73.1° 52.1° - - -
4/28 8:20pm 83 4 G 6 59° 49% - - 39° 73.1° 52.1° - - -
4/28 8:10pm 60 3 G 5 60° 46% - - 39° 73.1° 52.1° - - -
4/28 8:00pm 328 2 G 3 60° 46% - - 40° 73.1° 52.1° - - -
4/28 7:50pm 294 2 G 5 60° 46% - - 40° 73.1° 52.1° - - -
4/28 7:40pm 89 3 G 6 60° 46% - - 39° 73.1° 52.1° - - -
4/28 7:30pm 165 3 G 5 61° 44% - - 39° 73.1° 52.1° - - -
4/28 7:20pm 190 3 G 6 62° 44% - - 39° 73.1° 52.1° - - -
4/28 7:10pm 235 4 G 8 62° 42% - - 39° 73.1° 52.1° - - -
4/28 7:00pm 221 4 G 7 64° 39% - - 38° 73.1° 52.1° - - -
4/28 6:50pm 215 5 G 9 64° 38% - - 38° 73.1° 52.1° - - -
4/28 6:40pm 220 4 G 6 65° 37% - - 38° 73.1° 52.1° - - -
4/28 6:30pm 235 5 G 8 65° 35% - - 36° 73.1° 52.1° - - -
4/28 6:20pm 237 7 G 11 65° 34% - - 37° 73.1° 52.1° - - -
4/28 6:10pm 254 8 G 11 66° 32% - - 36° 73.1° 52.1° - - -
4/28 6:00pm 253 8 G 13 67° 30% - - 34° 73.1° 52.1° - - -